Time;durP1;ratioP1;P1;durP2;ratioP2;P2;SDS_P1;SDS_P2;PMS_P1;PMS_P2;Temp;Humidity;BMP_temperature;BMP_pressure;BME280_temperature;BME280_humidity;BME280_pressure;Samples;Min_cycle;Max_cycle;Signal;HPM_P1;HPM_P2
2021/08/01 00:00:11;;;;;;;;;;;;;;;16.79;71.41;95902.94;5045481;28;19973;-79
2021/08/01 00:02:37;;;;;;;;;;;;;;;16.76;71.40;95900.84;5063060;28;19965;-79
2021/08/01 00:05:03;;;;;;;;;;;;;;;16.73;70.56;95892.66;5048777;28;19975;-79
2021/08/01 00:07:29;;;;;;;;;;;;;;;16.71;71.16;95898.19;5039943;28;19985;-79
2021/08/01 00:09:59;;;;;;;;;;;;;;;16.68;70.84;95893.47;5069462;28;20464;-79
2021/08/01 00:12:26;;;;;;;;;;;;;;;16.66;71.70;95897.44;5061134;28;20449;-79
2021/08/01 00:14:52;;;;;;;;;;;;;;;16.61;71.26;95896.41;5064055;28;20368;-79
2021/08/01 00:17:18;;;;;;;;;;;;;;;16.59;72.51;95898.53;5047670;28;19969;-79
2021/08/01 00:19:44;;;;;;;;;;;;;;;16.59;72.57;95895.88;5066933;28;20402;-79
2021/08/01 00:22:10;;;;;;;;;;;;;;;16.55;73.31;95886.88;5072212;28;19972;-79
2021/08/01 00:24:36;;;;;;;;;;;;;;;16.51;73.29;95883.19;5066112;28;19970;-79
2021/08/01 00:27:02;;;;;;;;;;;;;;;16.48;72.45;95880.28;5060994;28;19969;-79
2021/08/01 00:29:29;;;;;;;;;;;;;;;16.45;72.87;95881.63;5089815;28;19960;-79
2021/08/01 00:31:56;;;;;;;;;;;;;;;16.44;72.87;95874.72;5056224;28;20412;-79
2021/08/01 00:34:21;;;;;;;;;;;;;;;16.41;73.16;95865.47;5048139;28;20428;-79
2021/08/01 00:36:47;;;;;;;;;;;;;;;16.38;72.86;95873.19;5067619;28;20019;-79
2021/08/01 00:39:13;;;;;;;;;;;;;;;16.36;72.97;95877.94;5071311;28;20343;-79
2021/08/01 00:41:39;;;;;;;;;;;;;;;16.34;73.41;95877.41;5049479;28;19968;-79
2021/08/01 00:44:05;;;;;;;;;;;;;;;16.32;73.16;95876.91;5083952;28;20014;-79
2021/08/01 00:46:31;;;;;;;;;;;;;;;16.31;73.55;95877.94;5085156;28;20055;-79
2021/08/01 00:48:57;;;;;;;;;;;;;;;16.29;73.53;95878.19;5073434;28;20000;-79
2021/08/01 00:51:23;;;;;;;;;;;;;;;16.27;73.14;95875.03;5046751;28;19968;-79
2021/08/01 00:53:49;;;;;;;;;;;;;;;16.25;73.00;95879.78;5065476;28;19975;-79
2021/08/01 00:56:15;;;;;;;;;;;;;;;16.26;73.61;95878.75;5092699;28;20424;-79
2021/08/01 00:58:41;;;;;;;;;;;;;;;16.25;73.79;95874.50;5056490;28;19991;-79
2021/08/01 01:01:11;;;;;;;;;;;;;;;16.27;74.42;95876.88;5049965;28;19960;-79
2021/08/01 01:03:36;;;;;;;;;;;;;;;16.27;74.03;95875.03;5061304;28;19971;-79
2021/08/01 01:06:08;;;;;;;;;;;;;;;16.24;74.44;95880.88;5070871;28;19960;-79
2021/08/01 01:09:00;;;;;;;;;;;;;;;16.22;74.02;95875.84;5087866;28;19976;-79
2021/08/01 01:11:28;;;;;;;;;;;;;;;16.21;74.89;95887.50;5088615;28;20340;-79
2021/08/01 01:13:56;;;;;;;;;;;;;;;16.21;74.63;95881.38;5068770;28;19961;-79
2021/08/01 01:16:22;;;;;;;;;;;;;;;16.20;74.72;95887.75;5059743;28;19972;-80
2021/08/01 01:18:49;;;;;;;;;;;;;;;16.19;75.17;95883.50;5067798;28;19964;-80
2021/08/01 01:21:25;;;;;;;;;;;;;;;16.16;75.14;95879.56;5066920;28;19969;-79
2021/08/01 01:24:00;;;;;;;;;;;;;;;16.14;75.59;95884.31;5087647;28;19975;-80
2021/08/01 01:26:33;;;;;;;;;;;;;;;16.12;75.48;95890.94;5047815;28;20309;-80
2021/08/01 01:29:14;;;;;;;;;;;;;;;16.08;75.84;95884.59;5071305;28;19977;-80
2021/08/01 01:31:51;;;;;;;;;;;;;;;16.03;75.93;95877.47;5081162;28;19964;-80
2021/08/01 01:34:27;;;;;;;;;;;;;;;15.91;76.45;95875.06;5061349;28;19968;-80
2021/08/01 01:36:54;;;;;;;;;;;;;;;15.84;77.05;95874.56;5067588;28;19964;-79
2021/08/01 01:39:21;;;;;;;;;;;;;;;15.81;77.40;95880.38;5050662;28;19995;-80
2021/08/01 01:41:47;;;;;;;;;;;;;;;15.75;77.90;95884.88;5066629;28;19964;-79
2021/08/01 01:44:13;;;;;;;;;;;;;;;15.77;78.25;95882.75;5045745;28;20016;-80
2021/08/01 01:46:40;;;;;;;;;;;;;;;15.77;77.66;95877.47;5032850;28;19969;-79
2021/08/01 01:49:08;;;;;;;;;;;;;;;15.73;77.58;95873.00;5065577;28;19999;-79
2021/08/01 01:51:34;;;;;;;;;;;;;;;15.70;79.48;95876.13;5069612;28;19975;-79
2021/08/01 01:54:01;;;;;;;;;;;;;;;15.61;78.58;95871.34;5071892;28;19968;-79
2021/08/01 01:56:28;;;;;;;;;;;;;;;15.55;79.06;95876.91;5084780;28;19968;-79
2021/08/01 01:58:55;;;;;;;;;;;;;;;15.52;79.42;95866.88;5088143;28;19964;-80
2021/08/01 02:01:21;;;;;;;;;;;;;;;15.51;78.67;95859.97;5032280;28;19968;-79
2021/08/01 02:03:47;;;;;;;;;;;;;;;15.50;79.05;95855.78;5063523;28;19975;-79
2021/08/01 02:06:14;;;;;;;;;;;;;;;15.48;79.42;95858.66;5049148;28;19980;-79
2021/08/01 02:09:00;;;;;;;;;;;;;;;15.53;79.74;95863.16;5050945;28;19981;-80
2021/08/01 02:11:35;;;;;;;;;;;;;;;15.54;79.18;95857.63;5048630;28;20336;-79
2021/08/01 02:14:13;;;;;;;;;;;;;;;15.58;78.65;95863.97;5039438;28;20034;-80
2021/08/01 02:16:40;;;;;;;;;;;;;;;15.62;78.80;95849.16;5087027;28;19971;-78
2021/08/01 02:19:08;;;;;;;;;;;;;;;15.64;78.49;95843.59;5061689;28;19964;-78
2021/08/01 02:21:34;;;;;;;;;;;;;;;15.67;79.04;95848.38;5059615;28;20455;-79
2021/08/01 02:24:01;;;;;;;;;;;;;;;15.69;79.16;95851.53;5067103;28;19972;-79
2021/08/01 02:26:27;;;;;;;;;;;;;;;15.69;78.93;95854.19;5087372;28;19961;-79
2021/08/01 02:28:54;;;;;;;;;;;;;;;15.69;79.70;95856.03;5063334;28;20444;-79
2021/08/01 02:31:21;;;;;;;;;;;;;;;15.70;79.46;95847.03;5063628;28;19964;-80
2021/08/01 02:33:47;;;;;;;;;;;;;;;15.70;79.12;95853.09;5066204;28;19968;-79
2021/08/01 02:36:14;;;;;;;;;;;;;;;15.65;80.05;95847.06;5058715;28;20340;-79
2021/08/01 02:38:41;;;;;;;;;;;;;;;15.59;79.36;95852.31;5062548;28;19969;-79
2021/08/01 02:41:16;;;;;;;;;;;;;;;15.59;79.86;95856.81;5064601;28;19972;-79
2021/08/01 02:43:42;;;;;;;;;;;;;;;15.61;79.95;95855.50;5043895;28;19972;-79
2021/08/01 02:46:09;;;;;;;;;;;;;;;15.63;80.26;95858.66;5058899;28;20344;-79
2021/08/01 02:48:35;;;;;;;;;;;;;;;15.63;79.59;95857.88;5052411;28;19989;-79
2021/08/01 02:51:03;;;;;;;;;;;;;;;15.64;79.55;95859.44;5031164;28;19984;-79
2021/08/01 02:53:33;;;;;;;;;;;;;;;15.64;79.97;95859.44;5036053;28;19965;-81
2021/08/01 02:56:03;;;;;;;;;;;;;;;15.64;79.30;95859.44;5060496;28;19968;-79
2021/08/01 02:58:32;;;;;;;;;;;;;;;15.58;78.79;95853.38;5038402;28;19980;-79
2021/08/01 03:00:59;;;;;;;;;;;;;;;15.53;79.45;95853.38;5054793;28;19961;-79
2021/08/01 03:03:25;;;;;;;;;;;;;;;15.51;79.00;95855.47;5035628;28;20463;-79
2021/08/01 03:05:51;;;;;;;;;;;;;;;15.41;80.30;95851.00;5023635;28;19973;-79
2021/08/01 03:08:17;;;;;;;;;;;;;;;15.35;78.98;95859.97;5054009;28;20333;-79
2021/08/01 03:10:44;;;;;;;;;;;;;;;15.35;80.68;95862.63;5073221;28;20042;-79
2021/08/01 03:13:10;;;;;;;;;;;;;;;15.37;80.76;95863.16;5064232;28;19961;-79
2021/08/01 03:15:37;;;;;;;;;;;;;;;15.35;80.46;95859.97;5038453;28;20459;-81
2021/08/01 03:18:03;;;;;;;;;;;;;;;15.35;80.32;95862.63;5038190;28;20371;-79
2021/08/01 03:20:28;;;;;;;;;;;;;;;15.31;80.88;95860.78;5073357;28;19984;-79
2021/08/01 03:22:54;;;;;;;;;;;;;;;15.21;80.56;95870.25;5038671;28;19972;-80
2021/08/01 03:25:20;;;;;;;;;;;;;;;15.11;80.46;95872.06;5038970;28;20317;-79
2021/08/01 03:27:46;;;;;;;;;;;;;;;15.07;81.36;95874.44;5051557;28;19972;-79
2021/08/01 03:30:12;;;;;;;;;;;;;;;15.06;81.69;95874.72;5023833;28;20047;-79
2021/08/01 03:32:38;;;;;;;;;;;;;;;15.07;81.37;95877.06;5027602;28;19969;-79
2021/08/01 03:35:04;;;;;;;;;;;;;;;15.09;81.08;95880.25;5037201;28;19966;-79
2021/08/01 03:37:30;;;;;;;;;;;;;;;15.12;81.20;95873.66;5048376;28;19965;-79
2021/08/01 03:39:56;;;;;;;;;;;;;;;15.13;81.09;95875.25;5062769;28;20333;-79
2021/08/01 03:42:22;;;;;;;;;;;;;;;15.11;82.63;95880.78;5051676;28;19976;-79
2021/08/01 03:44:48;;;;;;;;;;;;;;;15.03;81.83;95883.91;5036878;28;19965;-79
2021/08/01 03:47:14;;;;;;;;;;;;;;;14.91;79.64;95878.88;5051032;28;19968;-79
2021/08/01 03:49:43;;;;;;;;;;;;;;;14.87;82.12;95883.09;5034139;28;20445;-79
2021/08/01 03:52:12;;;;;;;;;;;;;;;14.87;81.47;95882.31;5034054;28;20297;-79
2021/08/01 03:54:38;;;;;;;;;;;;;;;14.82;83.09;95885.69;5054841;28;20423;-80
2021/08/01 03:57:04;;;;;;;;;;;;;;;14.77;81.87;95886.47;5044094;28;19995;-79
2021/08/01 03:59:36;;;;;;;;;;;;;;;14.74;82.19;95891.47;5047645;28;19961;-79
2021/08/01 04:02:03;;;;;;;;;;;;;;;14.78;82.15;95893.38;5057457;28;19975;-80
2021/08/01 04:04:29;;;;;;;;;;;;;;;14.81;82.60;95892.03;5076489;28;20417;-79
2021/08/01 04:06:55;;;;;;;;;;;;;;;14.82;82.88;95883.88;5062429;28;19973;-79
2021/08/01 04:09:21;;;;;;;;;;;;;;;14.87;82.79;95892.88;5058897;28;20549;-79
2021/08/01 04:11:47;;;;;;;;;;;;;;;14.91;82.29;95893.91;5047055;28;19973;-79
2021/08/01 04:14:12;;;;;;;;;;;;;;;14.90;82.71;95889.69;5039430;28;19968;-79
2021/08/01 04:16:38;;;;;;;;;;;;;;;14.89;82.50;95885.47;5061628;28;20023;-79
2021/08/01 04:19:08;;;;;;;;;;;;;;;14.91;82.89;95884.16;5067606;28;20431;-79
2021/08/01 04:21:35;;;;;;;;;;;;;;;14.91;82.56;95894.72;5053698;28;19969;-79
2021/08/01 04:24:00;;;;;;;;;;;;;;;14.95;82.45;95887.88;5076262;28;19992;-79
2021/08/01 04:26:26;;;;;;;;;;;;;;;14.96;82.19;95893.94;5039170;28;20426;-79
2021/08/01 04:28:52;;;;;;;;;;;;;;;14.95;81.33;95890.53;5058338;28;19995;-79
2021/08/01 04:31:18;;;;;;;;;;;;;;;14.97;81.96;95890.25;5070393;28;19965;-79
2021/08/01 04:33:44;;;;;;;;;;;;;;;14.99;82.59;95890.78;5052272;28;19968;-79
2021/08/01 04:36:10;;;;;;;;;;;;;;;15.00;81.79;95889.75;5058009;28;19973;-79
2021/08/01 04:38:36;;;;;;;;;;;;;;;14.99;81.41;95878.38;5041307;28;20417;-79
2021/08/01 04:41:02;;;;;;;;;;;;;;;14.99;81.74;95885.50;5047773;28;19961;-79
2021/08/01 04:43:28;;;;;;;;;;;;;;;14.98;81.69;95884.72;5052325;28;19972;-79
2021/08/01 04:45:54;;;;;;;;;;;;;;;14.99;81.94;95890.78;5049543;28;19969;-79
2021/08/01 04:48:20;;;;;;;;;;;;;;;14.99;81.80;95878.38;5021579;28;20056;-79
2021/08/01 04:50:46;;;;;;;;;;;;;;;15.01;82.53;95878.09;5038591;28;19993;-79
2021/08/01 04:53:12;;;;;;;;;;;;;;;14.97;81.40;95884.97;5021615;28;19976;-79
2021/08/01 04:55:39;;;;;;;;;;;;;;;14.97;81.68;95877.03;5062410;28;20393;-79
2021/08/01 04:58:05;;;;;;;;;;;;;;;14.94;82.08;95877.56;5058225;28;19972;-79
2021/08/01 05:00:31;;;;;;;;;;;;;;;14.95;81.80;95885.25;5054181;28;19976;-79
2021/08/01 05:03:00;;;;;;;;;;;;;;;14.96;81.28;95881.53;5021389;28;20362;-80
2021/08/01 05:05:27;;;;;;;;;;;;;;;15.01;81.68;95878.09;5051127;28;19976;-80
2021/08/01 05:07:53;;;;;;;;;;;;;;;15.01;81.56;95873.66;5057250;28;19961;-80
2021/08/01 05:10:19;;;;;;;;;;;;;;;15.02;81.32;95869.94;5075252;28;19967;-79
2021/08/01 05:12:45;;;;;;;;;;;;;;;15.03;82.79;95865.44;5057675;28;19969;-79
2021/08/01 05:15:11;;;;;;;;;;;;;;;15.00;81.85;95863.34;5019807;28;19965;-79
2021/08/01 05:17:37;;;;;;;;;;;;;;;15.00;81.31;95864.13;5052449;28;19965;-79
2021/08/01 05:20:03;;;;;;;;;;;;;;;15.04;81.84;95864.41;5055458;28;20039;-80
2021/08/01 05:22:29;;;;;;;;;;;;;;;15.09;81.77;95860.97;5057452;28;19973;-79
2021/08/01 05:24:55;;;;;;;;;;;;;;;15.11;82.41;95872.06;5043126;28;20501;-79
2021/08/01 05:27:21;;;;;;;;;;;;;;;15.14;82.01;95863.63;5038172;28;20052;-79
2021/08/01 05:29:47;;;;;;;;;;;;;;;15.17;82.08;95868.38;5055737;28;19985;-79
2021/08/01 05:32:12;;;;;;;;;;;;;;;15.19;81.57;95868.94;5072032;28;19973;-79
2021/08/01 05:34:38;;;;;;;;;;;;;;;15.19;82.31;95866.28;5037831;28;20009;-80
2021/08/01 05:37:04;;;;;;;;;;;;;;;15.18;82.07;95862.84;5062137;28;20022;-79
2021/08/01 05:39:32;;;;;;;;;;;;;;;15.10;81.57;95867.81;5050274;28;20119;-79
2021/08/01 05:41:58;;;;;;;;;;;;;;;15.06;81.74;95880.78;5055625;28;19972;-79
2021/08/01 05:44:24;;;;;;;;;;;;;;;15.06;82.35;95875.50;5068443;28;20008;-79
2021/08/01 05:46:50;;;;;;;;;;;;;;;15.03;82.45;95876.00;5013583;28;19969;-79
2021/08/01 05:49:16;;;;;;;;;;;;;;;15.03;83.71;95886.56;5050720;28;20393;-79
2021/08/01 05:51:42;;;;;;;;;;;;;;;15.02;83.38;95883.13;5042176;28;19969;-79
2021/08/01 05:54:08;;;;;;;;;;;;;;;15.01;84.09;95872.81;5041410;28;20004;-79
2021/08/01 05:56:34;;;;;;;;;;;;;;;14.96;83.58;95886.81;5067384;28;20017;-79
2021/08/01 05:59:00;;;;;;;;;;;;;;;14.98;83.87;95886.56;5066466;28;19971;-79
2021/08/01 06:01:25;;;;;;;;;;;;;;;15.00;84.71;95890.53;5039370;28;19969;-79
2021/08/01 06:03:52;;;;;;;;;;;;;;;14.97;84.25;95882.31;5023930;28;19969;-79
2021/08/01 06:06:20;;;;;;;;;;;;;;;14.95;84.32;95887.06;5043172;28;19965;-79
2021/08/01 06:08:46;;;;;;;;;;;;;;;14.91;83.54;95880.72;5038456;28;19980;-79
2021/08/01 06:11:13;;;;;;;;;;;;;;;14.86;85.27;95884.13;5045630;28;19965;-79
2021/08/01 06:13:39;;;;;;;;;;;;;;;14.81;85.62;95878.84;5037186;28;19969;-79
2021/08/01 06:16:06;;;;;;;;;;;;;;;14.80;87.02;95885.97;5024603;28;19976;-79
2021/08/01 06:18:32;;;;;;;;;;;;;;;14.75;86.27;95882.50;5036451;28;19992;-79
2021/08/01 06:21:02;;;;;;;;;;;;;;;14.77;86.15;95889.13;5056301;28;20015;-79
2021/08/01 06:23:28;;;;;;;;;;;;;;;14.80;85.66;95890.44;5052132;28;19984;-79
2021/08/01 06:25:54;;;;;;;;;;;;;;;14.80;86.59;95887.81;5045622;28;19973;-78
2021/08/01 06:28:19;;;;;;;;;;;;;;;14.82;85.13;95888.34;5020512;28;19975;-78
2021/08/01 06:30:45;;;;;;;;;;;;;;;14.87;85.26;95891.00;5041952;28;20456;-78
2021/08/01 06:33:11;;;;;;;;;;;;;;;14.95;85.75;95895.81;5056090;28;19969;-79
2021/08/01 06:35:37;;;;;;;;;;;;;;;15.02;85.78;95904.25;5073028;28;19965;-79
2021/08/01 06:38:03;;;;;;;;;;;;;;;15.07;87.24;95900.84;5059370;28;19961;-78
2021/08/01 06:40:29;;;;;;;;;;;;;;;15.10;87.34;95896.88;5039593;28;19972;-78
2021/08/01 06:42:55;;;;;;;;;;;;;;;15.11;88.20;95901.13;5050732;28;20004;-79
2021/08/01 06:45:21;;;;;;;;;;;;;;;15.07;85.74;95898.19;5035446;28;20418;-79
2021/08/01 06:47:47;;;;;;;;;;;;;;;15.08;86.41;95904.28;5036172;28;20055;-79
2021/08/01 06:50:12;;;;;;;;;;;;;;;15.08;85.91;95906.94;5045389;28;20079;-78
2021/08/01 06:52:38;;;;;;;;;;;;;;;15.10;85.95;95910.09;5068892;28;19973;-79
2021/08/01 06:55:06;;;;;;;;;;;;;;;15.12;85.00;95907.97;5045324;28;19973;-79
2021/08/01 06:57:32;;;;;;;;;;;;;;;15.16;87.09;95907.22;5019365;28;19969;-79
2021/08/01 06:59:58;;;;;;;;;;;;;;;15.19;85.98;95911.19;5066796;28;20451;-79
2021/08/01 07:02:24;;;;;;;;;;;;;;;15.26;86.70;95917.00;5035833;28;20421;-79
2021/08/01 07:04:50;;;;;;;;;;;;;;;15.31;85.88;95919.69;5024762;28;20012;-79
2021/08/01 07:07:16;;;;;;;;;;;;;;;15.33;86.23;95917.56;5040844;28;20435;-79
2021/08/01 07:09:42;;;;;;;;;;;;;;;15.41;86.41;95924.16;5021932;28;19985;-78
2021/08/01 07:12:08;;;;;;;;;;;;;;;15.45;87.44;95919.16;5038150;28;20455;-79
2021/08/01 07:14:34;;;;;;;;;;;;;;;15.49;87.90;95917.59;5049011;28;20330;-79
2021/08/01 07:17:01;;;;;;;;;;;;;;;15.50;85.80;95922.63;5030824;28;19969;-79
2021/08/01 07:19:28;;;;;;;;;;;;;;;15.52;86.54;95925.00;5067912;28;20337;-79
2021/08/01 07:21:54;;;;;;;;;;;;;;;15.53;85.82;95922.09;5036369;28;19977;-79
2021/08/01 07:24:20;;;;;;;;;;;;;;;15.51;85.82;95920.75;5018980;28;20018;-79
2021/08/01 07:26:47;;;;;;;;;;;;;;;15.48;85.76;95921.31;5044930;28;19975;-79
2021/08/01 07:29:13;;;;;;;;;;;;;;;15.46;85.75;95929.47;5039127;28;19981;-79
2021/08/01 07:31:39;;;;;;;;;;;;;;;15.46;86.38;95926.84;5023627;28;19968;-78
2021/08/01 07:34:05;;;;;;;;;;;;;;;15.44;86.09;95934.22;5045318;28;20423;-78
2021/08/01 07:36:31;;;;;;;;;;;;;;;15.46;87.19;95939.25;5035673;28;19980;-79
2021/08/01 07:38:57;;;;;;;;;;;;;;;15.50;87.53;95945.63;5055191;28;19975;-78
2021/08/01 07:41:23;;;;;;;;;;;;;;;15.52;86.63;95948.78;5072621;28;19965;-80
2021/08/01 07:43:51;;;;;;;;;;;;;;;15.56;87.28;95955.13;5063031;28;19975;-78
2021/08/01 07:46:18;;;;;;;;;;;;;;;15.58;87.46;95955.66;5059966;28;19976;-79
2021/08/01 07:48:44;;;;;;;;;;;;;;;15.61;87.07;95955.94;5038704;28;19991;-79
2021/08/01 07:51:11;;;;;;;;;;;;;;;15.65;87.64;95950.91;5071053;28;19969;-78
2021/08/01 07:53:37;;;;;;;;;;;;;;;15.71;86.42;95951.72;5061007;28;20075;-78
2021/08/01 07:56:03;;;;;;;;;;;;;;;15.75;86.72;95950.97;5065255;28;19969;-78
2021/08/01 07:58:29;;;;;;;;;;;;;;;15.81;86.22;95952.56;5064670;28;20421;-78
2021/08/01 08:00:55;;;;;;;;;;;;;;;15.82;85.52;95951.50;5053664;28;20328;-78
2021/08/01 08:03:21;;;;;;;;;;;;;;;15.81;85.81;95957.03;5086961;28;20024;-78
2021/08/01 08:05:47;;;;;;;;;;;;;;;15.81;85.46;95954.38;5063253;28;20439;-78
2021/08/01 08:08:13;;;;;;;;;;;;;;;15.84;85.34;95953.88;5058313;28;19983;-78
2021/08/01 08:10:39;;;;;;;;;;;;;;;15.88;85.59;95946.22;5086153;28;20038;-79
2021/08/01 08:13:05;;;;;;;;;;;;;;;15.90;86.66;95950.19;5069896;28;19976;-79
2021/08/01 08:15:31;;;;;;;;;;;;;;;15.92;86.19;95958.66;5063005;28;19973;-79
2021/08/01 08:17:57;;;;;;;;;;;;;;;15.95;85.71;95955.47;5064881;28;19972;-79
2021/08/01 08:20:23;;;;;;;;;;;;;;;15.98;85.91;95947.03;5033832;28;20060;-79
2021/08/01 08:22:48;;;;;;;;;;;;;;;15.99;84.90;95958.38;5083738;28;20015;-79
2021/08/01 08:25:15;;;;;;;;;;;;;;;15.98;85.97;95954.97;5063905;28;20000;-80
2021/08/01 08:27:41;;;;;;;;;;;;;;;15.99;85.88;95956.53;5050213;28;19968;-80
2021/08/01 08:30:07;;;;;;;;;;;;;;;16.00;85.27;95959.97;5041420;28;20016;-80
2021/08/01 08:32:34;;;;;;;;;;;;;;;16.00;85.30;95952.84;5083756;28;19991;-80
2021/08/01 08:35:00;;;;;;;;;;;;;;;16.04;84.55;95958.38;5085622;28;19965;-79
2021/08/01 08:37:26;;;;;;;;;;;;;;;16.07;83.68;95963.16;5080776;28;19960;-79
2021/08/01 08:39:52;;;;;;;;;;;;;;;16.13;84.46;95959.44;5066275;28;19970;-79
2021/08/01 08:42:18;;;;;;;;;;;;;;;16.20;83.75;95959.19;5070350;28;20382;-80
2021/08/01 08:44:44;;;;;;;;;;;;;;;16.28;85.34;95965.81;5071593;28;20348;-80
2021/08/01 08:47:16;;;;;;;;;;;;;;;16.32;84.92;95962.34;5040195;28;19972;-79
2021/08/01 08:49:44;;;;;;;;;;;;;;;16.35;84.83;95971.59;5058034;28;20067;-80
2021/08/01 08:52:10;;;;;;;;;;;;;;;16.37;83.36;95972.91;5064626;28;20349;-80
2021/08/01 08:54:39;;;;;;;;;;;;;;;16.39;83.01;95976.09;5087457;28;19980;-79
2021/08/01 08:57:35;;;;;;;;;;;;;;;16.41;83.66;95967.91;5054883;28;19972;-80
2021/08/01 09:00:11;;;;;;;;;;;;;;;16.46;84.50;95978.47;5058548;28;19964;-79
2021/08/01 09:02:38;;;;;;;;;;;;;;;16.50;83.15;95981.38;5056416;28;20424;-79
2021/08/01 09:05:06;;;;;;;;;;;;;;;16.50;81.13;95979.53;5083933;28;19972;-80
2021/08/01 09:07:38;;;;;;;;;;;;;;;16.50;81.40;95984.81;5048512;28;19969;-79
2021/08/01 09:10:05;;;;;;;;;;;;;;;16.43;82.04;95979.78;5053785;28;20476;-79
2021/08/01 09:12:39;;;;;;;;;;;;;;;16.36;81.79;95994.38;5051153;28;19968;-79
2021/08/01 09:15:13;;;;;;;;;;;;;;;16.29;80.94;95984.03;5065276;28;19960;-79
2021/08/01 09:17:39;;;;;;;;;;;;;;;16.28;83.37;95986.97;5079574;28;19961;-79
2021/08/01 09:20:14;;;;;;;;;;;;;;;16.34;83.59;95988.56;5057742;28;19969;-78
2021/08/01 09:22:41;;;;;;;;;;;;;;;16.37;82.60;95991.44;5064136;28;19973;-78
2021/08/01 09:25:17;;;;;;;;;;;;;;;16.37;81.72;95996.72;5084238;28;19972;-78
2021/08/01 09:27:43;;;;;;;;;;;;;;;16.41;83.07;95995.16;5063414;28;20344;-78
2021/08/01 09:30:10;;;;;;;;;;;;;;;16.46;83.39;95996.19;5063429;28;19984;-78
2021/08/01 09:32:49;;;;;;;;;;;;;;;16.42;82.49;95995.94;5066513;28;20317;-78
2021/08/01 09:35:16;;;;;;;;;;;;;;;16.44;82.88;95996.47;5042184;28;19968;-78
2021/08/01 09:37:42;;;;;;;;;;;;;;;16.50;83.89;95999.91;5062900;28;19983;-78
2021/08/01 09:40:11;;;;;;;;;;;;;;;16.53;82.16;95992.25;5084133;28;19968;-78
2021/08/01 09:42:41;;;;;;;;;;;;;;;16.60;81.60;96002.53;5064934;28;20418;-78
2021/08/01 09:45:11;;;;;;;;;;;;;;;16.60;80.45;96005.19;5083077;28;19961;-78
2021/08/01 09:47:37;;;;;;;;;;;;;;;16.53;81.18;95999.41;5068227;28;20443;-78
2021/08/01 09:50:06;;;;;;;;;;;;;;;16.50;80.20;95992.75;5088792;28;19992;-78
2021/08/01 09:52:32;;;;;;;;;;;;;;;16.46;81.85;95997.00;5051990;28;19969;-78
2021/08/01 09:54:58;;;;;;;;;;;;;;;16.47;83.80;96000.44;5090645;28;20085;-78
2021/08/01 09:57:24;;;;;;;;;;;;;;;16.46;83.88;95997.00;5067416;28;20026;-78
2021/08/01 10:00:04;;;;;;;;;;;;;;;16.49;82.97;96000.97;5063837;28;20000;-78
2021/08/01 10:02:35;;;;;;;;;;;;;;;16.45;81.58;95992.78;5064793;28;19968;-78
2021/08/01 10:05:21;;;;;;;;;;;;;;;16.41;82.52;95999.66;5063214;28;20429;-77
2021/08/01 10:07:49;;;;;;;;;;;;;;;16.39;83.22;95988.53;5070876;28;19971;-77
2021/08/01 10:10:24;;;;;;;;;;;;;;;16.43;83.98;95992.25;5081323;28;19981;-77
2021/08/01 10:12:53;;;;;;;;;;;;;;;16.54;84.88;95993.03;5052409;28;19971;-77
2021/08/01 10:15:20;;;;;;;;;;;;;;;16.62;83.12;95987.19;5083986;28;20339;-77
2021/08/01 10:17:45;;;;;;;;;;;;;;;16.66;83.93;95993.53;5065602;28;19960;-78
2021/08/01 10:20:12;;;;;;;;;;;;;;;16.72;84.13;95989.03;5084058;28;19976;-78
2021/08/01 10:22:39;;;;;;;;;;;;;;;16.78;85.07;95985.31;5086532;28;19969;-78
2021/08/01 10:25:10;;;;;;;;;;;;;;;16.87;83.73;95989.03;5068197;28;19968;-77
2021/08/01 10:27:39;;;;;;;;;;;;;;;16.91;83.68;95989.28;5079457;28;19968;-77
2021/08/01 10:30:05;;;;;;;;;;;;;;;16.89;85.01;95984.25;5062218;28;19984;-79
2021/08/01 10:32:36;;;;;;;;;;;;;;;16.89;84.39;95978.16;5051299;28;19969;-77
2021/08/01 10:35:06;;;;;;;;;;;;;;;16.93;84.20;95980.00;5062840;28;19961;-78
2021/08/01 10:37:35;;;;;;;;;;;;;;;16.99;82.55;95978.13;5084974;28;19964;-77
2021/08/01 10:40:06;;;;;;;;;;;;;;;17.03;84.02;95979.19;5085186;28;19964;-77
2021/08/01 10:42:33;;;;;;;;;;;;;;;17.10;83.44;95971.72;5062038;28;19965;-78
2021/08/01 10:44:59;;;;;;;;;;;;;;;17.17;83.84;95974.09;5082164;28;19972;-77
2021/08/01 10:47:25;;;;;;;;;;;;;;;17.15;79.87;95973.56;5080098;28;19968;-77
2021/08/01 10:49:53;;;;;;;;;;;;;;;17.12;81.03;95971.47;5061431;28;20332;-77
2021/08/01 10:52:19;;;;;;;;;;;;;;;17.16;81.87;95973.31;5081826;28;20439;-77
2021/08/01 10:54:58;;;;;;;;;;;;;;;17.28;83.04;95969.53;5059241;28;19977;-77
2021/08/01 10:57:27;;;;;;;;;;;;;;;17.34;81.78;95963.94;5083538;28;19967;-77
2021/08/01 10:59:53;;;;;;;;;;;;;;;17.39;81.51;95966.56;5060133;28;19961;-77
2021/08/01 11:02:20;;;;;;;;;;;;;;;17.49;83.02;95957.78;5084364;28;19961;-77
2021/08/01 11:04:47;;;;;;;;;;;;;;;17.63;82.62;95961.41;5086307;28;19969;-77
2021/08/01 11:07:33;;;;;;;;;;;;;;;17.76;80.36;95953.91;5086301;28;19975;-77
2021/08/01 11:10:08;;;;;;;;;;;;;;;17.85;81.75;95952.28;5058168;28;19976;-77
2021/08/01 11:12:35;;;;;;;;;;;;;;;17.93;79.93;95950.88;5048093;28;20385;-78
2021/08/01 11:15:02;;;;;;;;;;;;;;;18.01;78.49;95950.31;5082363;28;19972;-77
2021/08/01 11:17:40;;;;;;;;;;;;;;;18.03;81.00;95945.50;5066148;28;19960;-77
2021/08/01 11:20:15;;;;;;;;;;;;;;;18.07;77.79;95943.88;5061101;28;19969;-77
2021/08/01 11:22:44;;;;;;;;;;;;;;;18.04;78.87;95939.94;5065372;28;19975;-78
2021/08/01 11:25:23;;;;;;;;;;;;;;;18.10;80.25;95942.53;5080710;28;20386;-78
2021/08/01 11:28:07;;;;;;;;;;;;;;;18.18;77.65;95939.28;5065457;28;19968;-77
2021/08/01 11:30:52;;;;;;;;;;;;;;;18.19;71.93;95944.31;5085671;28;19973;-77
2021/08/01 11:33:30;;;;;;;;;;;;;;;18.20;74.52;95955.72;5044340;28;19961;-77
2021/08/01 11:36:11;;;;;;;;;;;;;;;18.28;77.62;95949.03;5069676;28;19983;-77
2021/08/01 11:38:53;;;;;;;;;;;;;;;18.31;76.86;95943.16;5048309;28;19972;-77
2021/08/01 11:41:25;;;;;;;;;;;;;;;18.24;76.59;95938.97;5084159;28;19960;-77
2021/08/01 11:44:14;;;;;;;;;;;;;;;18.20;75.86;95951.19;5081013;28;19960;-77
2021/08/01 11:46:46;;;;;;;;;;;;;;;18.21;77.67;95944.06;5065145;28;20420;-77
2021/08/01 11:49:13;;;;;;;;;;;;;;;18.22;76.08;95945.63;5083431;28;20007;-77
2021/08/01 11:51:43;;;;;;;;;;;;;;;18.26;75.78;95939.47;5063885;28;19969;-77
2021/08/01 11:54:12;;;;;;;;;;;;;;;18.36;75.82;95941.25;5076076;28;19961;-77
2021/08/01 11:56:41;;;;;;;;;;;;;;;18.63;73.29;95934.63;5064158;28;19969;-76
2021/08/01 11:59:08;;;;;;;;;;;;;;;18.86;72.92;95933.09;5082020;28;19971;-77
2021/08/01 12:01:34;;;;;;;;;;;;;;;18.93;72.71;95930.09;5078949;28;19976;-77
2021/08/01 12:04:07;;;;;;;;;;;;;;;18.85;72.42;95932.28;5067400;28;19969;-77
2021/08/01 12:06:33;;;;;;;;;;;;;;;18.83;72.83;95925.66;5053954;28;19975;-76
2021/08/01 12:08:59;;;;;;;;;;;;;;;18.83;72.85;95930.97;5066353;28;20005;-77
2021/08/01 12:11:25;;;;;;;;;;;;;;;19.03;73.61;95940.59;5061032;28;20012;-77
2021/08/01 12:14:04;;;;;;;;;;;;;;;19.18;69.95;95932.44;5083111;28;20041;-77
2021/08/01 12:16:30;;;;;;;;;;;;;;;19.32;70.39;95940.50;5080225;28;20348;-77
2021/08/01 12:19:14;;;;;;;;;;;;;;;19.30;69.79;95937.34;5089953;28;19968;-77
2021/08/01 12:21:40;;;;;;;;;;;;;;;19.13;70.26;95939.66;5093721;28;19968;-77
2021/08/01 12:24:06;;;;;;;;;;;;;;;18.97;71.15;95939.84;5085802;28;19964;-76
2021/08/01 12:26:40;;;;;;;;;;;;;;;18.94;71.51;95940.44;5085254;28;19968;-76
2021/08/01 12:29:06;;;;;;;;;;;;;;;18.93;71.88;95940.72;5079686;28;19980;-77
2021/08/01 12:31:32;;;;;;;;;;;;;;;18.93;69.32;95932.75;5087005;28;19987;-77
2021/08/01 12:33:58;;;;;;;;;;;;;;;19.02;72.32;95931.84;5093038;28;19976;-77
2021/08/01 12:36:25;;;;;;;;;;;;;;;19.20;74.07;95940.91;5084373;28;19960;-77
2021/08/01 12:38:51;;;;;;;;;;;;;;;19.37;72.78;95924.47;5062385;28;19969;-77
2021/08/01 12:41:20;;;;;;;;;;;;;;;19.55;71.60;95925.56;5066525;28;20336;-77
2021/08/01 12:43:46;;;;;;;;;;;;;;;19.89;69.68;95913.13;5083916;28;19969;-77
2021/08/01 12:46:17;;;;;;;;;;;;;;;20.12;65.63;95908.78;5068391;28;19971;-77
2021/08/01 12:48:46;;;;;;;;;;;;;;;20.31;68.31;95917.50;5068035;28;20420;-77
2021/08/01 12:51:15;;;;;;;;;;;;;;;20.47;68.96;95912.66;5087994;28;19996;-77